To NAV CANADA Home Page Login to a new session Search on AWWS site Feedback and Comments Disclaimer Vers la page française équivalente Tips FAQ What's new on the site To the Forecasts and Observations / NOTAM section To "File a Flight Plan" website Publications and other links Update of the User's profile FIC Telephone Numbers My Weather Data Folder Route Weather Data Regional Weather Data Local Weather Data To the Forecasts and Observations / NOTAM section
Request Generated 04/27/2015 at 01:44:26 UTC . Weather information available at that time is displayed.

METAR/TAF

BAKER LAKE/NU    

METAR CYBK 270100Z 26015KT 20SM DRSN FEW025 FEW150 FEW210 M09/M11
A3029 RMK SC1AC1CI1 CI TR SLP260=
METAR CYBK 270000Z 27017KT 20SM DRSN FEW025 FEW150 BKN210 M08/M10
A3029 RMK SC1AC2CI4 SC TR SLP260=
METAR CYBK 262300Z 27021KT 20SM DRSN FEW025 BKN150 M07/M09 A3029 RMK
SC1AC6 SLP260=

TAF CYBK 262338Z 2700/2712 27018KT P6SM FEW020 FEW150
BECMG 2702/2704 27012KT
FM270900 27010KT P6SM FEW015 FEW030
RMK NXT FCST BY 270600Z=
Your time UTC time
Weather data provided by Environment Canada and NAV CANADA